RJTH(METAR)
01/23 17:00
RJTH 230800Z 27015G28KT 9999 RA FEW018 SCT030 BKN040 05/01 Q1013
RMK A2993=
戻る
トップページへ戻る
IMOC Co,.Ltd.